createdAt,value
2024-02-13T00:01:19.156Z,97111.22
2024-02-13T00:04:07.210Z,97102.69
2024-02-13T00:06:57.175Z,97119.97
2024-02-13T00:09:44.285Z,97113.13
2024-02-13T00:12:30.071Z,97119.97
2024-02-13T00:15:20.237Z,97115.91
2024-02-13T00:18:07.159Z,97116.00
2024-02-13T00:20:54.985Z,97115.75
2024-02-13T00:23:41.254Z,97119.81
2024-02-13T00:26:27.721Z,97103.88
2024-02-13T00:29:13.974Z,97119.81
2024-02-13T00:32:20.142Z,97121.25
2024-02-13T00:35:06.985Z,97131.00
2024-02-13T00:37:52.904Z,97136.53
2024-02-13T00:40:38.674Z,97134.34
2024-02-13T00:43:24.780Z,97122.59
2024-02-13T00:46:11.398Z,97135.66
2024-02-13T00:49:17.514Z,97123.59
2024-02-13T00:52:24.723Z,97138.28
2024-02-13T00:55:30.648Z,97114.34
2024-02-13T00:58:36.715Z,97141.63
2024-02-13T01:01:42.854Z,97134.50
2024-02-13T01:04:28.736Z,97142.34
2024-02-13T01:07:14.663Z,97145.09
2024-02-13T01:10:00.415Z,97142.91
2024-02-13T01:12:47.965Z,97136.09
2024-02-13T01:15:33.877Z,97133.19
2024-02-13T01:18:25.712Z,97133.19
2024-02-13T01:21:15.298Z,97130.00
2024-02-13T01:24:01.462Z,97131.31
2024-02-13T01:26:47.086Z,97128.56
2024-02-13T01:29:38.341Z,97136.97
2024-02-13T01:32:25.709Z,97049.25
2024-02-13T01:35:12.997Z,97138.44
2024-02-13T01:37:58.535Z,97149.47
2024-02-13T01:40:47.812Z,97125.09
2024-02-13T01:43:34.123Z,97135.25
2024-02-13T01:46:21.183Z,97150.94
2024-02-13T01:49:08.939Z,97153.69
2024-02-13T01:51:56.105Z,97153.53
2024-02-13T01:54:42.834Z,97159.06
2024-02-13T01:57:31.182Z,97073.63
2024-02-13T02:00:21.029Z,97154.69
2024-02-13T02:03:09.113Z,97156.03
2024-02-13T02:05:54.956Z,97149.94
2024-02-13T02:08:41.184Z,97148.16
2024-02-13T02:11:27.166Z,97146.28
2024-02-13T02:14:13.233Z,97143.66
2024-02-13T02:17:09.543Z,97144.38
2024-02-13T02:19:55.644Z,97141.63
2024-02-13T02:22:41.775Z,97145.09
2024-02-13T02:25:27.637Z,97142.22
2024-02-13T02:28:13.976Z,97140.03
2024-02-13T02:31:00.068Z,97153.09
2024-02-13T02:33:47.659Z,97144.69
2024-02-13T02:36:33.990Z,97151.81
2024-02-13T02:39:20.160Z,97092.03
2024-02-13T02:42:06.041Z,97158.78
2024-02-13T02:44:51.990Z,97162.97
2024-02-13T02:47:37.883Z,97157.31
2024-02-13T02:50:24.281Z,97159.22
2024-02-13T02:53:10.502Z,97165.88
2024-02-13T02:55:56.207Z,97155.88
2024-02-13T02:58:43.390Z,97175.59
2024-02-13T03:01:29.977Z,97166.75
2024-02-13T03:04:15.666Z,97177.06
2024-02-13T03:07:01.360Z,97168.63
2024-02-13T03:09:46.932Z,97173.88
2024-02-13T03:12:33.850Z,97182.28
2024-02-13T03:15:20.216Z,97189.25
2024-02-13T03:18:08.083Z,97204.66
2024-02-13T03:20:54.605Z,97208.72
2024-02-13T03:23:40.379Z,97216.84
2024-02-13T03:26:27.267Z,97223.81
2024-02-13T03:29:12.603Z,97226.44
2024-02-13T03:32:00.644Z,97208.59
2024-02-13T03:34:46.245Z,97227.31
2024-02-13T03:37:33.747Z,97232.25
2024-02-13T03:40:19.235Z,97244.03
2024-02-13T03:43:05.440Z,97241.84
2024-02-13T03:45:50.720Z,97243.72
2024-02-13T03:48:37.131Z,97252.59
2024-02-13T03:51:24.265Z,97248.22
2024-02-13T03:54:12.473Z,97247.94
2024-02-13T03:57:01.641Z,97234.56
2024-02-13T03:59:47.695Z,97249.97
2024-02-13T04:02:34.470Z,97259.69
2024-02-13T04:05:21.074Z,97262.44
2024-02-13T04:08:09.852Z,97270.59
2024-02-13T04:10:55.953Z,97260.69
2024-02-13T04:13:42.050Z,97267.53
2024-02-13T04:16:28.074Z,97273.63
2024-02-13T04:19:13.957Z,97270.00
2024-02-13T04:22:00.166Z,97278.09
2024-02-13T04:24:45.770Z,97278.72
2024-02-13T04:27:33.701Z,97283.50
2024-02-13T04:30:19.740Z,97286.25
2024-02-13T04:33:08.256Z,97283.19
2024-02-13T04:35:54.060Z,97286.53
2024-02-13T04:38:40.111Z,97287.09
2024-02-13T04:41:26.987Z,97281.31
2024-02-13T04:44:14.504Z,97292.63
2024-02-13T04:47:00.164Z,97285.47
2024-02-13T04:49:46.088Z,97289.56
2024-02-13T04:52:31.649Z,97285.03
2024-02-13T04:55:17.874Z,97285.19
2024-02-13T04:58:08.694Z,97285.47
2024-02-13T05:01:03.303Z,97298.81
2024-02-13T05:03:49.817Z,97287.34
2024-02-13T05:06:54.154Z,97278.63
2024-02-13T05:09:39.628Z,97305.66
2024-02-13T05:12:26.238Z,97306.22
2024-02-13T05:15:11.934Z,97310.44
2024-02-13T05:17:58.300Z,97314.78
2024-02-13T05:20:45.233Z,97323.34
2024-02-13T05:23:31.346Z,97182.00
2024-02-13T05:26:19.147Z,97329.44
2024-02-13T05:29:09.272Z,97338.13
2024-02-13T05:31:54.966Z,97340.72
2024-02-13T05:34:41.232Z,97343.47
2024-02-13T05:37:26.977Z,97351.47
2024-02-13T05:40:13.425Z,97355.69
2024-02-13T05:42:59.170Z,97362.66
2024-02-13T05:45:45.238Z,97358.72
2024-02-13T05:48:30.832Z,97360.03
2024-02-13T05:51:16.696Z,97369.75
2024-02-13T05:54:07.694Z,97380.78
2024-02-13T05:56:53.662Z,97363.66
2024-02-13T05:59:40.487Z,97390.34
2024-02-13T06:02:28.722Z,97391.81
2024-02-13T06:05:16.602Z,97390.06
2024-02-13T06:08:02.758Z,97398.31
2024-02-13T06:10:48.461Z,97386.09
2024-02-13T06:13:35.233Z,97406.59
2024-02-13T06:16:21.034Z,97361.63
2024-02-13T06:19:07.237Z,97408.06
2024-02-13T06:21:52.871Z,97407.16
2024-02-13T06:24:39.765Z,97391.25
2024-02-13T06:27:25.526Z,97416.03
2024-02-13T06:30:12.302Z,97426.47
2024-02-13T06:32:58.355Z,97427.91
2024-02-13T06:35:44.433Z,97422.84
2024-02-13T06:38:50.327Z,97427.63
2024-02-13T06:41:38.356Z,97427.63
2024-02-13T06:44:24.762Z,97436.03
2024-02-13T06:47:31.803Z,97439.38
2024-02-13T06:50:18.218Z,97424.78
2024-02-13T06:53:04.359Z,97425.94
2024-02-13T06:55:51.566Z,97444.56
2024-02-13T06:58:39.663Z,97443.25
2024-02-13T07:01:25.446Z,97290.38
2024-02-13T07:04:14.806Z,97440.19
2024-02-13T07:07:18.684Z,97301.53
2024-02-13T07:10:32.945Z,97460.06
2024-02-13T07:13:18.757Z,97475.56
2024-02-13T07:16:08.419Z,97477.16
2024-02-13T07:18:54.088Z,97464.09
2024-02-13T07:22:00.231Z,97474.41
2024-02-13T07:25:05.995Z,97470.91
2024-02-13T07:27:52.602Z,97481.94
2024-02-13T07:30:38.306Z,97486.75
2024-02-13T07:33:24.205Z,97486.56
2024-02-13T07:36:11.356Z,97480.28
2024-02-13T07:38:57.662Z,97489.97
2024-02-13T07:41:45.260Z,97508.31
2024-02-13T07:44:31.606Z,97502.88
2024-02-13T07:47:17.887Z,97512.75
2024-02-13T07:50:04.223Z,97514.22
2024-02-13T07:52:49.637Z,97514.63
2024-02-13T07:55:36.449Z,97521.59
2024-02-13T07:58:21.936Z,97508.47
2024-02-13T08:01:11.560Z,97518.38
2024-02-13T08:03:57.661Z,97519.31
2024-02-13T08:06:43.509Z,97526.47
2024-02-13T08:09:29.228Z,97523.53
2024-02-13T08:12:17.129Z,97516.97
2024-02-13T08:15:24.092Z,97362.81
2024-02-13T08:18:29.917Z,97529.78
2024-02-13T08:21:35.565Z,97533.59
2024-02-13T08:24:41.479Z,97521.75
2024-02-13T08:27:28.225Z,97547.28
2024-02-13T08:30:14.357Z,97543.66
2024-02-13T08:33:01.854Z,97544.78
2024-02-13T08:36:08.312Z,97547.34
2024-02-13T08:39:13.703Z,97548.09
2024-02-13T08:42:19.577Z,97552.66
2024-02-13T08:45:26.523Z,97566.19
2024-02-13T08:48:12.917Z,97572.66
2024-02-13T08:50:58.906Z,97579.78
2024-02-13T08:53:45.917Z,97572.41
2024-02-13T08:56:51.678Z,97552.88
2024-02-13T08:59:57.579Z,97577.03
2024-02-13T09:02:43.533Z,97582.13
2024-02-13T09:05:49.288Z,97578.66
2024-02-13T09:08:56.133Z,97581.41
2024-02-13T09:11:42.544Z,97588.38
2024-02-13T09:14:48.131Z,97593.16
2024-02-13T09:17:54.126Z,97580.78
2024-02-13T09:20:40.161Z,97567.47
2024-02-13T09:23:29.227Z,97591.00
2024-02-13T09:26:15.667Z,97591.31
2024-02-13T09:29:02.462Z,97612.06
2024-02-13T09:31:48.049Z,97605.25
2024-02-13T09:34:34.798Z,97596.56
2024-02-13T09:37:21.921Z,97605.81
2024-02-13T09:40:16.122Z,97602.81
2024-02-13T09:43:02.764Z,97608.81
2024-02-13T09:45:50.561Z,97609.13
2024-02-13T09:48:38.846Z,97602.16
2024-02-13T09:51:25.800Z,97597.88
2024-02-13T09:54:12.339Z,97613.28
2024-02-13T09:57:01.296Z,97611.09
2024-02-13T09:59:47.196Z,97607.03
2024-02-13T10:02:33.589Z,97618.38
2024-02-13T10:05:22.371Z,97602.09
2024-02-13T10:08:09.319Z,97606.63
2024-02-13T10:11:05.661Z,97608.31
2024-02-13T10:13:51.237Z,97610.78
2024-02-13T10:16:36.911Z,97618.88
2024-02-13T10:19:22.832Z,97608.63
2024-02-13T10:22:11.116Z,97639.94
2024-02-13T10:24:57.526Z,97625.66
2024-02-13T10:27:43.451Z,97632.81
2024-02-13T10:30:32.387Z,97625.09
2024-02-13T10:33:20.498Z,97630.63
2024-02-13T10:36:07.595Z,97635.72
2024-02-13T10:38:56.141Z,97633.13
2024-02-13T10:41:46.015Z,97635.72
2024-02-13T10:44:37.852Z,97610.97
2024-02-13T10:47:47.724Z,97616.28
2024-02-13T10:50:55.368Z,97618.31
2024-02-13T10:54:03.857Z,97623.56
2024-02-13T10:57:09.522Z,97623.88
2024-02-13T11:00:16.755Z,97631.19
2024-02-13T11:03:23.226Z,97613.53
2024-02-13T11:06:09.534Z,97617.50
2024-02-13T11:08:57.466Z,97618.53
2024-02-13T11:11:45.972Z,97620.56
2024-02-13T11:14:31.825Z,97613.34
2024-02-13T11:17:18.213Z,97617.72
2024-02-13T11:20:10.361Z,97612.22
2024-02-13T11:22:59.001Z,97623.38
2024-02-13T11:26:01.160Z,97628.34
2024-02-13T11:28:48.347Z,97626.16
2024-02-13T11:31:34.346Z,97630.94
2024-02-13T11:34:20.808Z,97636.13
2024-02-13T11:37:20.671Z,97615.31
2024-02-13T11:40:08.403Z,97621.53
2024-02-13T11:42:54.660Z,97629.56
2024-02-13T11:45:40.423Z,97627.94
2024-02-13T11:48:32.403Z,97635.81
2024-02-13T11:51:23.495Z,97621.53
2024-02-13T11:54:10.410Z,97632.16
2024-02-13T11:56:57.355Z,97643.66
2024-02-13T11:59:45.374Z,97635.34
2024-02-13T12:02:31.562Z,97643.19
2024-02-13T12:05:20.487Z,97634.91
2024-02-13T12:08:29.735Z,97636.94
2024-02-13T12:11:36.198Z,97643.50
2024-02-13T12:14:42.401Z,97626.25
2024-02-13T12:17:48.064Z,97629.56
2024-02-13T12:20:59.292Z,97643.13
2024-02-13T12:24:07.804Z,97647.22
2024-02-13T12:27:13.802Z,97650.59
2024-02-13T12:30:20.102Z,97657.78
2024-02-13T12:33:29.174Z,97658.75
2024-02-13T12:36:41.132Z,97652.66
2024-02-13T12:39:47.149Z,97655.50
2024-02-13T12:42:52.842Z,97659.22
2024-02-13T12:46:04.437Z,97666.25
2024-02-13T12:49:10.250Z,97680.25
2024-02-13T12:52:16.183Z,97676.81
2024-02-13T12:55:22.649Z,97683.41
2024-02-13T12:58:28.527Z,97687.34
2024-02-13T13:01:34.595Z,97678.75
2024-02-13T13:04:41.734Z,97627.94
2024-02-13T13:07:47.538Z,97696.28
2024-02-13T13:10:53.720Z,97680.53
2024-02-13T13:13:59.495Z,97695.00
2024-02-13T13:17:05.322Z,97693.53
2024-02-13T13:20:10.817Z,97703.81
2024-02-13T13:23:17.766Z,97552.38
2024-02-13T13:26:23.521Z,97648.44
2024-02-13T13:29:29.884Z,97706.00
2024-02-13T13:32:35.753Z,97715.38
2024-02-13T13:35:41.363Z,97716.72
2024-02-13T13:38:46.787Z,97713.94
2024-02-13T13:41:53.047Z,97717.63
2024-02-13T13:44:58.877Z,97701.22
2024-02-13T13:48:05.904Z,97669.06
2024-02-13T13:51:13.189Z,97702.28
2024-02-13T13:54:19.136Z,97731.78
2024-02-13T13:57:24.865Z,97727.88
2024-02-13T14:00:31.611Z,97733.06
2024-02-13T14:03:37.186Z,97740.75
2024-02-13T14:06:43.120Z,97748.28
2024-02-13T14:09:48.710Z,97747.00
2024-02-13T14:12:54.256Z,97741.53
2024-02-13T14:16:00.003Z,97748.78
2024-02-13T14:19:05.553Z,97765.09
2024-02-13T14:22:11.581Z,97751.50
2024-02-13T14:25:17.499Z,97769.13
2024-02-13T14:28:24.201Z,97764.56
2024-02-13T14:31:29.477Z,97773.00
2024-02-13T14:34:35.018Z,97767.31
2024-02-13T14:37:40.908Z,97785.66
2024-02-13T14:40:47.041Z,97784.03
2024-02-13T14:43:52.629Z,97793.72
2024-02-13T14:46:58.385Z,97787.50
2024-02-13T14:50:04.231Z,97796.31
2024-02-13T14:53:10.429Z,97790.47
2024-02-13T14:56:16.021Z,97780.81
2024-02-13T14:59:22.103Z,97798.41
2024-02-13T15:02:32.641Z,97796.75
2024-02-13T15:05:39.225Z,97803.69
2024-02-13T15:08:44.830Z,97731.69
2024-02-13T15:11:50.736Z,97826.53
2024-02-13T15:14:56.711Z,97817.13
2024-02-13T15:17:42.843Z,97825.81
2024-02-13T15:20:29.074Z,97829.63
2024-02-13T15:23:15.268Z,97838.28
2024-02-13T15:26:01.022Z,97796.56
2024-02-13T15:28:48.293Z,97841.19
2024-02-13T15:31:34.403Z,97848.75
2024-02-13T15:34:20.122Z,97849.63
2024-02-13T15:37:06.316Z,97858.09
2024-02-13T15:40:10.412Z,97856.84
2024-02-13T15:43:15.283Z,97871.13
2024-02-13T15:46:19.218Z,97862.72
2024-02-13T15:49:25.364Z,97873.53
2024-02-13T15:52:34.497Z,97863.47
2024-02-13T15:55:40.569Z,97883.81
2024-02-13T15:58:46.325Z,97893.22
2024-02-13T16:01:51.816Z,97891.19
2024-02-13T16:04:57.372Z,97897.78
2024-02-13T16:08:03.751Z,97804.34
2024-02-13T16:11:09.244Z,97913.94
2024-02-13T16:14:14.856Z,97917.97
2024-02-13T16:17:20.882Z,97927.16
2024-02-13T16:20:29.784Z,97915.41
2024-02-13T16:23:35.990Z,97938.34
2024-02-13T16:26:42.467Z,97943.66
2024-02-13T16:29:48.201Z,97951.72
2024-02-13T16:32:57.956Z,97960.00
2024-02-13T16:36:03.463Z,97953.22
2024-02-13T16:39:09.493Z,97963.66
2024-02-13T16:42:15.418Z,97953.59
2024-02-13T16:45:21.021Z,97965.13
2024-02-13T16:48:27.072Z,97970.81
2024-02-13T16:51:32.903Z,97976.34
2024-02-13T16:54:39.091Z,97978.91
2024-02-13T16:57:45.337Z,97976.69
2024-02-13T17:00:52.067Z,97984.75
2024-02-13T17:03:58.439Z,97984.94
2024-02-13T17:07:04.282Z,97980.72
2024-02-13T17:10:11.081Z,97984.00
2024-02-13T17:13:16.915Z,97987.09
2024-02-13T17:16:22.668Z,97986.19
2024-02-13T17:19:28.405Z,98005.13
2024-02-13T17:22:34.255Z,97996.09
2024-02-13T17:25:39.860Z,97986.56
2024-02-13T17:28:47.874Z,97987.28
2024-02-13T17:32:37.698Z,97998.28
2024-02-13T17:36:29.589Z,98008.19
2024-02-13T17:40:15.052Z,98014.78
2024-02-13T17:44:01.076Z,98013.13
2024-02-13T17:48:03.977Z,98028.53
2024-02-13T17:51:58.452Z,98025.97
2024-02-13T17:55:44.628Z,98032.75
2024-02-13T17:59:30.276Z,98029.81
2024-02-13T18:03:16.693Z,98038.06
2024-02-13T18:06:57.870Z,98039.38
2024-02-13T18:10:43.482Z,98039.38
2024-02-13T18:14:28.962Z,98046.31
2024-02-13T18:18:14.657Z,98050.72
2024-02-13T18:22:00.879Z,97900.56
2024-02-13T18:25:06.890Z,98061.72
2024-02-13T18:27:52.533Z,98065.41
2024-02-13T18:30:57.846Z,98067.97
2024-02-13T18:34:05.582Z,98073.81
2024-02-13T18:36:51.310Z,98074.91
2024-02-13T18:39:57.158Z,98079.69
2024-02-13T18:43:03.161Z,98082.81
2024-02-13T18:46:10.682Z,98082.59
2024-02-13T18:49:16.217Z,98082.97
2024-02-13T18:52:23.217Z,98087.53
2024-02-13T18:55:30.918Z,98088.06
2024-02-13T18:58:37.777Z,98102.00
2024-02-13T19:01:23.509Z,98098.88
2024-02-13T19:04:10.424Z,98100.16
2024-02-13T19:06:56.864Z,98079.91
2024-02-13T19:09:44.422Z,98111.84
2024-02-13T19:12:31.395Z,98116.78
2024-02-13T19:15:37.384Z,98109.97
2024-02-13T19:18:48.212Z,98113.63
2024-02-13T19:21:54.233Z,98122.84
2024-02-13T19:24:59.871Z,98121.34
2024-02-13T19:28:06.357Z,98085.69
2024-02-13T19:31:11.737Z,98126.16
2024-02-13T19:34:17.347Z,98129.44
2024-02-13T19:37:22.985Z,98134.53
2024-02-13T19:40:29.468Z,98135.25
2024-02-13T19:43:35.066Z,98140.03
2024-02-13T19:46:43.645Z,98151.41
2024-02-13T19:49:49.776Z,98136.00
2024-02-13T19:52:55.800Z,98151.81
2024-02-13T19:56:01.270Z,98142.28
2024-02-13T19:59:07.086Z,98116.13
2024-02-13T20:02:12.860Z,98133.38
2024-02-13T20:05:18.425Z,98153.75
2024-02-13T20:08:24.495Z,98145.13
2024-02-13T20:11:30.838Z,98171.56
2024-02-13T20:14:36.794Z,98168.25
2024-02-13T20:17:44.142Z,98153.34
2024-02-13T20:20:50.297Z,98169.28
2024-02-13T20:23:56.019Z,98167.47
2024-02-13T20:27:01.945Z,98145.00
2024-02-13T20:30:07.995Z,98121.41
2024-02-13T20:33:16.972Z,98177.75
2024-02-13T20:36:24.424Z,98183.22
2024-02-13T20:39:18.670Z,98193.34
2024-02-13T20:42:05.791Z,98184.34
2024-02-13T20:45:20.557Z,98187.25
2024-02-13T20:48:28.754Z,98198.63
2024-02-13T20:51:35.003Z,98198.44
2024-02-13T20:55:21.745Z,98201.19
2024-02-13T20:59:07.329Z,98206.50
2024-02-13T21:02:52.860Z,98208.13
2024-02-13T21:06:41.270Z,98209.59
2024-02-13T21:10:29.121Z,98211.41
2024-02-13T21:14:14.614Z,98220.19
2024-02-13T21:18:00.095Z,98231.91
2024-02-13T21:21:05.604Z,98231.00
2024-02-13T21:23:54.506Z,98225.44
2024-02-13T21:26:41.146Z,98243.03
2024-02-13T21:29:27.630Z,98223.75
2024-02-13T21:32:15.099Z,98229.66
2024-02-13T21:35:02.298Z,98234.72
2024-02-13T21:37:48.304Z,98234.34
2024-02-13T21:40:35.093Z,98244.97
2024-02-13T21:43:21.664Z,98245.53
2024-02-13T21:46:08.722Z,98242.78
2024-02-13T21:48:54.535Z,98240.50
2024-02-13T21:51:41.303Z,98242.38
2024-02-13T21:54:26.717Z,98239.03
2024-02-13T21:57:32.589Z,98245.34
2024-02-13T22:00:38.341Z,98253.78
2024-02-13T22:03:40.735Z,98250.44
2024-02-13T22:06:30.315Z,98258.34
2024-02-13T22:09:16.391Z,98269.84
2024-02-13T22:12:04.132Z,98273.28
2024-02-13T22:19:22.106Z,98282.66
2024-02-13T22:22:08.192Z,98287.63
2024-02-13T22:24:54.008Z,98273.47
2024-02-13T22:27:40.239Z,98274.56
2024-02-13T22:30:26.336Z,98277.50
2024-02-13T22:33:13.072Z,98286.34
2024-02-13T22:35:58.893Z,98295.13
2024-02-13T22:38:45.229Z,98290.69
2024-02-13T22:41:31.246Z,98288.47
2024-02-13T22:44:18.420Z,98261.53
2024-02-13T22:47:05.626Z,98279.75
2024-02-13T22:49:51.121Z,98294.66
2024-02-13T22:52:37.271Z,98295.94
2024-02-13T22:55:23.181Z,98294.78
2024-02-13T22:58:09.372Z,98295.31
2024-02-13T23:00:59.474Z,98295.31
2024-02-13T23:03:47.080Z,98292.56
2024-02-13T23:06:32.941Z,98300.28
2024-02-13T23:09:19.636Z,98298.25
2024-02-13T23:12:05.438Z,98296.78
2024-02-13T23:14:52.080Z,98299.34
2024-02-13T23:17:38.808Z,98303.75
2024-02-13T23:20:27.640Z,98290.13
2024-02-13T23:23:13.518Z,98306.38
2024-02-13T23:25:59.622Z,98305.66
2024-02-13T23:28:52.530Z,98309.84
2024-02-13T23:31:42.772Z,98310.41
2024-02-13T23:34:28.724Z,98309.44
2024-02-13T23:37:14.575Z,98299.72
2024-02-13T23:40:00.182Z,98304.47
2024-02-13T23:42:49.857Z,98226.69
2024-02-13T23:45:35.481Z,98319.50
2024-02-13T23:48:22.903Z,98291.13
2024-02-13T23:51:09.971Z,98315.81
2024-02-13T23:53:55.853Z,98318.34
2024-02-13T23:56:41.536Z,98320.91
2024-02-13T23:59:27.982Z,98325.97
